Time;durP1;ratioP1;P1;durP2;ratioP2;P2;SDS_P1;SDS_P2;PMS_P1;PMS_P2;Temp;Humidity;BMP_temperature;BMP_pressure;BME280_temperature;BME280_humidity;BME280_pressure;Samples;Min_cycle;Max_cycle;Signal;HPM_P1;HPM_P2
2024/02/09 00:00:43;;;;;;;;;;;;;;;0.53;72.60;99975.48;107581;1253;108340;-63
2024/02/09 00:03:35;;;;;;;;;;;;;;;0.54;72.23;99978.73;107562;1251;110642;-63
2024/02/09 00:06:05;;;;;;;;;;;;;;;0.54;72.43;99981.41;107545;1251;99176;-63
2024/02/09 00:08:36;;;;;;;;;;;;;;;0.54;72.58;99975.22;107601;1254;99176;-62
2024/02/09 00:11:07;;;;;;;;;;;;;;;0.51;72.56;99973.25;107605;1254;113082;-63
2024/02/09 00:13:35;;;;;;;;;;;;;;;0.49;72.65;99963.17;107565;1251;107677;-64
2024/02/09 00:16:04;;;;;;;;;;;;;;;0.52;72.67;99968.27;107670;1251;108745;-64
2024/02/09 00:18:33;;;;;;;;;;;;;;;0.57;72.99;99966.38;107618;1251;99213;-62
2024/02/09 00:21:02;;;;;;;;;;;;;;;0.62;73.30;99968.90;107638;1251;99115;-63
2024/02/09 00:23:32;;;;;;;;;;;;;;;0.67;73.03;99974.27;107566;1251;113511;-62
2024/02/09 00:26:00;;;;;;;;;;;;;;;0.71;73.29;99974.73;107624;1251;107884;-63
2024/02/09 00:28:30;;;;;;;;;;;;;;;0.74;72.72;99976.70;107512;1251;108409;-62
2024/02/09 00:30:59;;;;;;;;;;;;;;;0.73;73.14;99985.49;107404;1251;99188;-65
2024/02/09 00:33:29;;;;;;;;;;;;;;;0.73;73.03;99986.25;107408;1251;99261;-62
2024/02/09 00:35:58;;;;;;;;;;;;;;;0.72;72.89;99976.59;107463;1251;115726;-64
2024/02/09 00:38:26;;;;;;;;;;;;;;;0.73;73.16;99971.80;107354;1254;107558;-65
2024/02/09 00:40:55;;;;;;;;;;;;;;;0.75;73.26;99969.36;107358;1251;108285;-64
2024/02/09 00:43:23;;;;;;;;;;;;;;;0.75;73.13;99972.21;107363;1251;99185;-63
2024/02/09 00:45:52;;;;;;;;;;;;;;;0.74;73.19;99969.23;107498;1254;99272;-63
2024/02/09 00:48:20;;;;;;;;;;;;;;;0.73;73.07;99963.69;107607;1251;112866;-62
2024/02/09 00:50:51;;;;;;;;;;;;;;;0.74;73.36;99964.11;107546;1251;108131;-65
2024/02/09 00:53:20;;;;;;;;;;;;;;;0.78;73.37;99960.02;107593;1251;108357;-64
2024/02/09 00:55:48;;;;;;;;;;;;;;;0.80;73.36;99964.12;107489;1254;99178;-62
2024/02/09 00:58:18;;;;;;;;;;;;;;;0.84;73.59;99963.56;107639;1251;99092;-64
2024/02/09 01:00:46;;;;;;;;;;;;;;;0.87;73.51;99954.73;107577;1251;112503;-62
2024/02/09 01:03:15;;;;;;;;;;;;;;;0.90;73.64;99949.02;107480;1254;106973;-62
2024/02/09 01:05:45;;;;;;;;;;;;;;;0.95;73.85;99950.70;107570;1251;107953;-63
2024/02/09 01:08:14;;;;;;;;;;;;;;;0.96;74.08;99948.87;107540;1251;99167;-62
2024/02/09 01:10:43;;;;;;;;;;;;;;;0.99;73.97;99934.73;107513;1254;99211;-63
2024/02/09 02:44:51;;;;;;;;;;;;;;;1.86;74.62;99825.95;107317;1250;99189;-62
2024/02/09 02:47:19;;;;;;;;;;;;;;;1.85;74.66;99827.79;107327;1251;99055;-64
2024/02/09 03:06:28;;;;;;;;;;;;;;;1.75;75.28;99813.04;107355;1251;108879;-63
2024/02/09 03:09:16;;;;;;;;;;;;;;;1.78;75.25;99821.02;107408;1250;107516;-64
2024/02/09 03:11:45;;;;;;;;;;;;;;;1.83;75.54;99817.66;107384;1251;99167;-63
2024/02/09 03:14:13;;;;;;;;;;;;;;;1.90;76.20;99812.08;107582;1251;99398;-63
2024/02/09 03:16:42;;;;;;;;;;;;;;;1.96;76.19;99812.92;107588;1251;112615;-64
2024/02/09 03:19:11;;;;;;;;;;;;;;;2.00;76.02;99812.80;107555;1251;108261;-63
2024/02/09 03:21:40;;;;;;;;;;;;;;;2.01;75.90;99798.80;107543;1254;108194;-64
2024/02/09 03:24:09;;;;;;;;;;;;;;;2.07;75.87;99799.64;107607;1254;99227;-63
2024/02/09 03:26:37;;;;;;;;;;;;;;;2.11;76.10;99806.60;107705;1251;99239;-63
2024/02/09 03:29:05;;;;;;;;;;;;;;;2.15;76.29;99805.44;107602;1251;113179;-63
2024/02/09 03:31:34;;;;;;;;;;;;;;;2.21;76.27;99806.10;107540;1251;109276;-63
2024/02/09 03:34:02;;;;;;;;;;;;;;;2.27;76.37;99813.44;107570;1249;108327;-64
2024/02/09 03:36:33;;;;;;;;;;;;;;;2.30;76.08;99809.85;107517;1251;99722;-64
2024/02/09 03:39:02;;;;;;;;;;;;;;;2.36;76.23;99810.70;107601;1251;99253;-63
2024/02/09 03:41:31;;;;;;;;;;;;;;;2.41;76.44;99811.59;107563;1253;113697;-63
2024/02/09 03:44:03;;;;;;;;;;;;;;;2.48;76.58;99821.76;107616;1254;108078;-63
2024/02/09 03:46:33;;;;;;;;;;;;;;;2.54;76.47;99821.54;107479;1254;106826;-63
2024/02/09 03:49:01;;;;;;;;;;;;;;;2.54;76.31;99822.40;107591;1251;99332;-63
2024/02/09 03:51:30;;;;;;;;;;;;;;;2.52;75.97;99819.66;107534;1251;99089;-63
2024/02/09 03:53:59;;;;;;;;;;;;;;;2.54;76.09;99824.19;107580;1251;112737;-63
2024/02/09 03:56:28;;;;;;;;;;;;;;;2.56;76.22;99824.03;107584;1251;107934;-64
2024/02/09 03:58:58;;;;;;;;;;;;;;;2.57;76.03;99827.30;107546;1254;107609;-63
2024/02/09 04:01:27;;;;;;;;;;;;;;;2.53;75.59;99828.69;107665;1251;99565;-64
2024/02/09 04:03:55;;;;;;;;;;;;;;;2.50;75.76;99833.81;107624;1254;99173;-63
2024/02/09 04:06:24;;;;;;;;;;;;;;;2.47;75.51;99831.36;107656;1251;113415;-63
2024/02/09 04:08:54;;;;;;;;;;;;;;;2.44;75.87;99831.20;107594;1251;108284;-63
2024/02/09 04:11:22;;;;;;;;;;;;;;;2.43;75.59;99827.56;107527;1250;106978;-64
2024/02/09 04:13:51;;;;;;;;;;;;;;;2.41;75.67;99823.79;107567;1251;99189;-63
2024/02/09 04:16:20;;;;;;;;;;;;;;;2.38;75.37;99822.38;107583;1251;99417;-64
2024/02/09 04:18:48;;;;;;;;;;;;;;;2.35;75.20;99824.53;107613;1251;113118;-62
2024/02/09 04:21:17;;;;;;;;;;;;;;;2.28;75.19;99822.21;107525;1254;108732;-63
2024/02/09 04:23:46;;;;;;;;;;;;;;;2.25;75.18;99824.71;107578;1251;108265;-63
2024/02/09 04:26:15;;;;;;;;;;;;;;;2.25;75.55;99825.24;107523;1251;99198;-64
2024/02/09 04:28:43;;;;;;;;;;;;;;;2.27;75.89;99821.41;107567;1251;99064;-64
2024/02/09 04:31:11;;;;;;;;;;;;;;;2.29;75.77;99828.67;107476;1251;113157;-65
2024/02/09 04:33:41;;;;;;;;;;;;;;;2.32;75.93;99822.86;107643;1254;108378;-64
2024/02/09 04:36:10;;;;;;;;;;;;;;;2.33;75.78;99813.71;107541;1254;106510;-65
2024/02/09 04:38:41;;;;;;;;;;;;;;;2.35;75.94;99813.05;107536;1254;99169;-63
2024/02/09 04:41:09;;;;;;;;;;;;;;;2.38;75.90;99816.44;107639;1254;99170;-63
2024/02/09 04:43:37;;;;;;;;;;;;;;;2.38;75.82;99816.39;107677;1254;113758;-62
2024/02/09 04:46:06;;;;;;;;;;;;;;;2.41;75.61;99816.36;107627;1254;108520;-62
2024/02/09 04:48:34;;;;;;;;;;;;;;;2.44;75.88;99814.41;107611;1251;109151;-62
2024/02/09 04:51:06;;;;;;;;;;;;;;;2.48;76.04;99809.88;107447;1251;99221;-63
2024/02/09 04:53:36;;;;;;;;;;;;;;;2.51;76.16;99812.84;107441;1254;99299;-64
2024/02/09 04:56:04;;;;;;;;;;;;;;;2.54;76.26;99810.67;107568;1250;113152;-65
2024/02/09 04:58:33;;;;;;;;;;;;;;;2.55;75.92;99805.48;107463;1254;108665;-62
2024/02/09 05:01:02;;;;;;;;;;;;;;;2.56;75.93;99807.89;107430;1251;109074;-65
2024/02/09 05:03:30;;;;;;;;;;;;;;;2.56;75.87;99811.27;107478;1251;99186;-62
2024/02/09 05:05:58;;;;;;;;;;;;;;;2.56;75.86;99815.34;107630;1251;99122;-62
2024/02/09 05:08:27;;;;;;;;;;;;;;;2.55;75.73;99813.77;107494;1251;113075;-62
2024/02/09 05:10:55;;;;;;;;;;;;;;;2.54;75.55;99820.24;107596;1254;106777;-66
2024/02/09 05:13:23;;;;;;;;;;;;;;;2.54;75.89;99821.70;107548;1251;108452;-64
2024/02/09 05:15:51;;;;;;;;;;;;;;;2.55;75.70;99819.16;107434;1250;99338;-67
2024/02/09 05:18:20;;;;;;;;;;;;;;;2.56;75.63;99815.15;107563;1251;99090;-66
2024/02/09 05:20:49;;;;;;;;;;;;;;;2.55;75.78;99821.98;107515;1251;113278;-65
2024/02/09 05:23:17;;;;;;;;;;;;;;;2.56;75.61;99826.45;107486;1250;107645;-65
2024/02/09 05:25:45;;;;;;;;;;;;;;;2.61;76.26;99832.48;107483;1254;108095;-65
2024/02/09 05:28:14;;;;;;;;;;;;;;;2.66;76.25;99835.35;107472;1252;99340;-66
2024/02/09 05:30:43;;;;;;;;;;;;;;;2.71;76.31;99838.75;107365;1251;99069;-66
2024/02/09 05:33:11;;;;;;;;;;;;;;;2.71;75.83;99835.52;107315;1251;113128;-64
2024/02/09 05:35:40;;;;;;;;;;;;;;;2.71;75.87;99840.30;107369;1250;107224;-66
2024/02/09 05:38:09;;;;;;;;;;;;;;;2.75;76.21;99837.92;107319;1250;107943;-67
2024/02/09 05:40:37;;;;;;;;;;;;;;;2.81;76.52;99832.36;107339;1250;99189;-64
2024/02/09 05:43:05;;;;;;;;;;;;;;;2.83;76.14;99831.83;107415;1252;99125;-65
2024/02/09 05:45:34;;;;;;;;;;;;;;;2.86;76.43;99834.80;107489;1254;113505;-66
2024/02/09 05:48:05;;;;;;;;;;;;;;;2.89;76.43;99841.88;107468;1250;106497;-65
2024/02/09 05:50:33;;;;;;;;;;;;;;;2.88;75.91;99847.80;107472;1251;108193;-65
2024/02/09 05:53:08;;;;;;;;;;;;;;;2.85;76.00;99846.94;107490;1251;99031;-64
2024/02/09 05:55:40;;;;;;;;;;;;;;;2.84;76.14;99839.02;107540;1251;99175;-64
2024/02/09 05:58:09;;;;;;;;;;;;;;;2.86;75.91;99838.73;107473;1250;113247;-64
2024/02/09 06:00:38;;;;;;;;;;;;;;;2.87;76.29;99846.98;107644;1253;107926;-65
2024/02/09 06:03:07;;;;;;;;;;;;;;;2.92;76.51;99859.69;107567;1251;108403;-65
2024/02/09 06:05:40;;;;;;;;;;;;;;;2.99;77.02;99857.62;107535;1251;99172;-64
2024/02/09 06:08:09;;;;;;;;;;;;;;;3.08;76.92;99861.25;107482;1251;99179;-66
2024/02/09 06:10:37;;;;;;;;;;;;;;;3.17;77.41;99864.16;107546;1254;112728;-65
2024/02/09 06:13:06;;;;;;;;;;;;;;;3.22;76.90;99872.65;107560;1254;108648;-65
2024/02/09 06:15:34;;;;;;;;;;;;;;;3.24;76.96;99868.76;107524;1251;107083;-65
2024/02/09 06:18:04;;;;;;;;;;;;;;;3.31;77.18;99867.41;107646;1251;99945;-64
2024/02/09 06:20:33;;;;;;;;;;;;;;;3.34;76.96;99867.36;107643;1253;99227;-62
2024/02/09 06:23:02;;;;;;;;;;;;;;;3.36;76.80;99871.80;107567;1254;113487;-65
2024/02/09 06:25:30;;;;;;;;;;;;;;;3.36;76.59;99871.61;107503;1251;108023;-65
2024/02/09 06:28:02;;;;;;;;;;;;;;;3.35;76.51;99873.13;107505;1251;108575;-64
2024/02/09 06:30:31;;;;;;;;;;;;;;;3.34;76.45;99875.35;107363;1251;99173;-66
2024/02/09 06:33:00;;;;;;;;;;;;;;;3.33;76.58;99881.04;107403;1251;99205;-65
2024/02/09 06:35:31;;;;;;;;;;;;;;;3.36;76.61;99880.15;107395;1251;113371;-66
2024/02/09 06:37:59;;;;;;;;;;;;;;;3.39;76.81;99886.10;107352;1250;107439;-66
2024/02/09 06:40:28;;;;;;;;;;;;;;;3.47;76.99;99890.35;107385;1250;108341;-65
2024/02/09 06:42:56;;;;;;;;;;;;;;;3.55;77.17;99896.52;107280;1250;99196;-65
2024/02/09 06:45:25;;;;;;;;;;;;;;;3.63;77.27;99892.00;107364;1251;99182;-64
2024/02/09 06:47:53;;;;;;;;;;;;;;;3.74;77.40;99888.19;107321;1251;113547;-63
2024/02/09 06:50:22;;;;;;;;;;;;;;;3.86;77.36;99887.45;107346;1251;107848;-62
2024/02/09 06:52:50;;;;;;;;;;;;;;;3.95;77.15;99890.52;107311;1254;108506;-64
2024/02/09 06:55:19;;;;;;;;;;;;;;;4.04;77.19;99890.59;107256;1251;99162;-66
2024/02/09 06:57:47;;;;;;;;;;;;;;;4.12;77.17;99890.52;107300;1250;99092;-65
2024/02/09 07:00:15;;;;;;;;;;;;;;;4.18;77.00;99882.83;107462;1251;113578;-66
2024/02/09 07:02:45;;;;;;;;;;;;;;;4.25;76.91;99877.09;107333;1251;108484;-67
2024/02/09 07:05:15;;;;;;;;;;;;;;;4.36;77.05;99875.55;107357;1254;109318;-64
2024/02/09 07:07:44;;;;;;;;;;;;;;;4.45;77.05;99877.39;107337;1251;99279;-65
2024/02/09 07:10:13;;;;;;;;;;;;;;;4.50;76.86;99871.61;107439;1255;99192;-65
2024/02/09 07:12:41;;;;;;;;;;;;;;;4.54;77.00;99882.14;107535;1250;113517;-67
2024/02/09 07:15:10;;;;;;;;;;;;;;;4.61;76.96;99879.68;107448;1254;108330;-64
2024/02/09 07:17:38;;;;;;;;;;;;;;;4.68;77.15;99880.20;107350;1254;107583;-65
2024/02/09 07:20:16;;;;;;;;;;;;;;;4.75;77.20;99886.60;107272;1251;99267;-66
2024/02/09 07:22:46;;;;;;;;;;;;;;;4.85;77.26;99894.13;107387;1251;99237;-64
2024/02/09 07:25:14;;;;;;;;;;;;;;;4.91;77.09;99892.29;107290;1250;112612;-64
2024/02/09 07:27:43;;;;;;;;;;;;;;;4.97;77.09;99901.91;107330;1251;107395;-64
2024/02/09 07:30:13;;;;;;;;;;;;;;;5.06;77.25;99897.11;107336;1254;108792;-65
2024/02/09 07:32:41;;;;;;;;;;;;;;;5.16;77.25;99891.21;107311;1251;99099;-66
2024/02/09 07:35:10;;;;;;;;;;;;;;;5.27;77.43;99888.73;107383;1253;99077;-65
2024/02/09 07:37:39;;;;;;;;;;;;;;;5.40;77.41;99892.98;107480;1253;114083;-66
2024/02/09 07:40:08;;;;;;;;;;;;;;;5.51;77.51;99893.41;107550;1254;107927;-66
2024/02/09 07:42:36;;;;;;;;;;;;;;;5.58;77.19;99893.70;107440;1251;107563;-66
2024/02/09 07:45:09;;;;;;;;;;;;;;;5.67;77.34;99893.64;107443;1253;99162;-63
2024/02/09 07:47:37;;;;;;;;;;;;;;;5.78;77.31;99897.77;107591;1254;99249;-63
2024/02/09 07:50:06;;;;;;;;;;;;;;;5.86;77.37;99894.61;107473;1250;112846;-63
2024/02/09 07:52:38;;;;;;;;;;;;;;;5.94;77.29;99900.00;107563;1253;107626;-64
2024/02/09 07:55:07;;;;;;;;;;;;;;;6.04;77.49;99901.73;107480;1251;107410;-65
2024/02/09 07:57:36;;;;;;;;;;;;;;;6.15;77.62;99901.66;107520;1251;99188;-67
2024/02/09 08:00:08;;;;;;;;;;;;;;;6.30;77.68;99902.95;107467;1252;99298;-63
2024/02/09 08:02:40;;;;;;;;;;;;;;;6.47;77.88;99901.28;107541;1254;113605;-63
2024/02/09 08:05:17;;;;;;;;;;;;;;;6.70;77.88;99910.20;107523;1253;108183;-63
2024/02/09 08:07:50;;;;;;;;;;;;;;;7.00;77.60;99909.27;107431;1251;106825;-64
2024/02/09 08:10:18;;;;;;;;;;;;;;;7.32;76.42;99906.02;107469;1251;99054;-64
2024/02/09 08:12:47;;;;;;;;;;;;;;;7.66;75.75;99902.50;107488;1251;99160;-62
2024/02/09 08:15:15;;;;;;;;;;;;;;;7.94;74.86;99896.79;107488;1251;112833;-62
2024/02/09 08:17:48;;;;;;;;;;;;;;;8.19;74.08;99897.59;107469;1254;107710;-64
2024/02/09 08:20:21;;;;;;;;;;;;;;;8.39;72.00;99891.37;107496;1251;108076;-64
2024/02/09 08:22:50;;;;;;;;;;;;;;;8.60;70.60;99894.52;107427;1251;99297;-65
2024/02/09 08:25:18;;;;;;;;;;;;;;;8.79;70.33;99887.86;107478;1251;99240;-63
2024/02/09 08:27:47;;;;;;;;;;;;;;;8.99;68.93;99876.89;107471;1251;113797;-64
2024/02/09 08:30:15;;;;;;;;;;;;;;;9.21;66.01;99865.42;107437;1250;107286;-64
2024/02/09 08:32:43;;;;;;;;;;;;;;;9.41;64.78;99867.96;107356;1254;108492;-65
2024/02/09 08:35:12;;;;;;;;;;;;;;;9.58;66.13;99880.23;107315;1252;99358;-65
2024/02/09 08:37:40;;;;;;;;;;;;;;;9.75;66.36;99882.17;107278;1250;99224;-66
2024/02/09 08:40:09;;;;;;;;;;;;;;;9.92;65.38;99885.02;107284;1250;112435;-66
2024/02/09 08:42:37;;;;;;;;;;;;;;;10.06;65.66;99886.42;107325;1251;107373;-66
2024/02/09 08:45:06;;;;;;;;;;;;;;;10.17;65.40;99884.98;106233;1250;1416624;-65
2024/02/09 08:47:34;;;;;;;;;;;;;;;10.32;62.50;99881.30;107382;1251;99192;-65
2024/02/09 08:50:04;;;;;;;;;;;;;;;10.48;61.92;99879.08;107405;1251;99060;-66
2024/02/09 08:52:33;;;;;;;;;;;;;;;10.62;61.66;99877.36;107445;1250;112282;-66
2024/02/09 08:55:02;;;;;;;;;;;;;;;10.74;61.44;99878.58;107370;1251;108742;-67
2024/02/09 08:57:30;;;;;;;;;;;;;;;10.86;60.28;99886.97;107390;1250;106576;-64
2024/02/09 08:59:58;;;;;;;;;;;;;;;11.00;59.27;99887.38;107323;1249;99175;-65
2024/02/09 09:02:27;;;;;;;;;;;;;;;11.10;59.80;99882.52;107424;1251;99748;-64
2024/02/09 09:04:57;;;;;;;;;;;;;;;11.20;59.40;99880.55;107446;1251;113645;-66
2024/02/09 09:07:25;;;;;;;;;;;;;;;11.32;58.69;99879.48;107466;1251;108676;-64
2024/02/09 09:09:54;;;;;;;;;;;;;;;11.41;58.55;99884.52;107603;1251;107694;-64
2024/02/09 09:12:22;;;;;;;;;;;;;;;11.52;57.60;99889.06;107571;1251;99296;-63
2024/02/09 09:14:51;;;;;;;;;;;;;;;11.57;57.49;99894.93;107548;1251;99364;-64
2024/02/09 09:17:19;;;;;;;;;;;;;;;11.67;56.78;99899.37;107575;1251;113206;-63
2024/02/09 09:19:54;;;;;;;;;;;;;;;11.77;55.54;99895.52;107573;1251;108340;-64
2024/02/09 09:22:23;;;;;;;;;;;;;;;11.84;56.22;99896.95;107589;1251;108188;-64
2024/02/09 09:24:52;;;;;;;;;;;;;;;11.90;55.69;99888.37;107494;1251;99185;-63
2024/02/09 09:27:20;;;;;;;;;;;;;;;12.00;55.49;99890.77;107605;1251;99176;-63
2024/02/09 09:29:49;;;;;;;;;;;;;;;12.07;54.00;99891.23;107566;1251;113365;-63
2024/02/09 09:32:20;;;;;;;;;;;;;;;12.11;54.07;99889.45;107539;1251;108348;-62
2024/02/09 09:34:49;;;;;;;;;;;;;;;12.16;54.17;99885.66;107547;1251;108361;-62
2024/02/09 09:37:18;;;;;;;;;;;;;;;12.23;53.31;99889.96;107617;1251;99195;-63
2024/02/09 09:39:46;;;;;;;;;;;;;;;12.27;53.00;99887.55;107528;1251;99259;-64
2024/02/09 09:42:14;;;;;;;;;;;;;;;12.33;52.82;99896.86;107615;1251;112084;-63
2024/02/09 09:44:48;;;;;;;;;;;;;;;12.40;53.05;99898.25;107627;1251;108349;-64
2024/02/09 09:47:16;;;;;;;;;;;;;;;12.47;53.51;99897.91;107594;1253;107509;-62
2024/02/09 09:49:45;;;;;;;;;;;;;;;12.56;53.14;99888.25;107584;1251;99178;-64
2024/02/09 09:52:30;;;;;;;;;;;;;;;12.68;51.76;99889.33;107669;1251;99183;-63
2024/02/09 09:54:59;;;;;;;;;;;;;;;12.82;51.36;99883.57;107597;1251;113204;-63
2024/02/09 09:57:30;;;;;;;;;;;;;;;12.90;50.95;99876.58;107577;1251;108740;-63
2024/02/09 09:59:59;;;;;;;;;;;;;;;12.98;51.66;99866.99;107589;1254;108321;-63
2024/02/09 10:02:27;;;;;;;;;;;;;;;13.11;50.62;99865.15;107587;1251;99170;-63
2024/02/09 10:04:58;;;;;;;;;;;;;;;13.23;50.68;99863.17;107607;1251;99163;-64
2024/02/09 10:07:27;;;;;;;;;;;;;;;13.29;51.03;99856.33;107685;1251;113507;-65
2024/02/09 10:09:56;;;;;;;;;;;;;;;13.38;51.07;99852.92;107633;1254;108344;-65
2024/02/09 10:12:24;;;;;;;;;;;;;;;13.49;50.16;99852.98;107598;1254;108399;-64
2024/02/09 10:14:53;;;;;;;;;;;;;;;13.56;49.95;99850.75;107565;1251;99387;-66
2024/02/09 10:17:23;;;;;;;;;;;;;;;13.61;49.83;99846.39;107577;1251;99176;-64
2024/02/09 10:19:52;;;;;;;;;;;;;;;13.72;49.98;99838.79;107611;1251;112982;-62
2024/02/09 10:22:22;;;;;;;;;;;;;;;13.86;49.11;99838.31;107557;1251;108273;-64
2024/02/09 10:24:55;;;;;;;;;;;;;;;13.97;49.19;99828.02;107571;1251;107322;-65
2024/02/09 10:27:23;;;;;;;;;;;;;;;14.12;48.56;99826.98;107629;1250;99169;-63
2024/02/09 10:29:53;;;;;;;;;;;;;;;14.32;48.61;99827.02;107599;1251;99166;-64
2024/02/09 10:32:24;;;;;;;;;;;;;;;14.60;46.87;99826.05;107580;1251;113735;-63
2024/02/09 10:34:53;;;;;;;;;;;;;;;14.93;47.00;99821.42;107591;1251;108351;-64
2024/02/09 10:37:22;;;;;;;;;;;;;;;15.53;45.23;99818.76;107638;1251;108061;-64
2024/02/09 10:39:59;;;;;;;;;;;;;;;16.27;44.67;99816.03;107551;1253;99314;-63
2024/02/09 10:42:30;;;;;;;;;;;;;;;16.96;42.61;99811.66;107750;1251;99204;-65
2024/02/09 10:44:58;;;;;;;;;;;;;;;17.39;42.42;99802.55;107593;1250;112421;-63
2024/02/09 10:47:40;;;;;;;;;;;;;;;18.08;40.65;99806.77;107582;1251;107937;-63
2024/02/09 10:50:10;;;;;;;;;;;;;;;18.87;38.91;99803.66;107564;1251;108142;-63
2024/02/09 10:52:49;;;;;;;;;;;;;;;19.32;38.76;99799.55;107562;1251;99130;-63
2024/02/09 10:55:22;;;;;;;;;;;;;;;19.72;36.66;99796.95;107481;1254;99195;-63
2024/02/09 10:57:51;;;;;;;;;;;;;;;19.79;36.70;99793.80;107501;1251;113253;-64
2024/02/09 11:00:19;;;;;;;;;;;;;;;20.02;38.18;99785.09;107613;1250;108225;-63
2024/02/09 11:02:47;;;;;;;;;;;;;;;20.04;37.23;99780.40;107611;1251;109183;-64
2024/02/09 11:05:16;;;;;;;;;;;;;;;20.23;36.49;99771.94;107587;1251;99173;-63
2024/02/09 11:07:46;;;;;;;;;;;;;;;20.32;36.25;99777.64;107570;1251;99199;-66
2024/02/09 11:10:17;;;;;;;;;;;;;;;20.49;34.83;99770.99;107628;1254;112959;-63
2024/02/09 11:12:56;;;;;;;;;;;;;;;20.51;35.76;99765.30;107574;1251;107929;-63
2024/02/09 11:15:24;;;;;;;;;;;;;;;20.48;35.25;99767.65;107574;1253;108801;-64
2024/02/09 11:17:52;;;;;;;;;;;;;;;20.28;35.42;99768.17;107561;1255;99176;-65
2024/02/09 11:20:21;;;;;;;;;;;;;;;20.58;36.21;99762.12;107529;1254;99188;-62
2024/02/09 11:22:49;;;;;;;;;;;;;;;21.12;36.02;99756.27;107528;1251;113264;-63
2024/02/09 11:25:20;;;;;;;;;;;;;;;21.35;33.83;99760.67;107603;1254;107821;-63
2024/02/09 11:27:50;;;;;;;;;;;;;;;21.31;34.35;99754.77;107604;1251;107360;-63
2024/02/09 11:30:20;;;;;;;;;;;;;;;21.13;34.30;99760.30;107578;1252;99177;-63
2024/02/09 11:32:49;;;;;;;;;;;;;;;20.91;33.31;99761.42;107626;1250;99175;-63
2024/02/09 11:35:18;;;;;;;;;;;;;;;20.89;33.48;99761.50;107540;1254;112580;-65
2024/02/09 11:37:47;;;;;;;;;;;;;;;20.91;33.90;99750.62;107558;1250;107278;-64
2024/02/09 11:40:17;;;;;;;;;;;;;;;20.80;33.27;99750.63;107394;1251;108300;-64
2024/02/09 11:42:45;;;;;;;;;;;;;;;20.75;34.88;99744.81;107503;1251;99162;-64
2024/02/09 11:45:14;;;;;;;;;;;;;;;20.73;34.91;99747.08;107578;1251;99345;-64
2024/02/09 11:47:43;;;;;;;;;;;;;;;20.46;33.91;99744.47;107544;1251;113204;-64
2024/02/09 11:50:21;;;;;;;;;;;;;;;20.34;34.56;99743.70;107549;1254;109574;-64
2024/02/09 11:52:53;;;;;;;;;;;;;;;20.13;34.21;99747.27;107554;1254;108293;-64
2024/02/09 11:55:39;;;;;;;;;;;;;;;19.64;34.68;99743.63;107523;1251;99935;-64
2024/02/09 11:58:09;;;;;;;;;;;;;;;19.36;34.76;99742.69;107536;1251;99339;-64
2024/02/09 12:00:38;;;;;;;;;;;;;;;19.21;35.07;99741.14;107574;1251;112928;-63
2024/02/09 12:03:06;;;;;;;;;;;;;;;19.04;35.01;99741.31;107602;1251;108457;-66
2024/02/09 12:05:37;;;;;;;;;;;;;;;18.89;35.41;99741.11;107503;1251;108287;-66
2024/02/09 12:08:06;;;;;;;;;;;;;;;18.77;35.56;99745.80;107549;1251;99188;-64
2024/02/09 12:10:36;;;;;;;;;;;;;;;18.56;35.96;99748.84;107570;1251;99129;-64
2024/02/09 12:13:05;;;;;;;;;;;;;;;18.37;36.19;99750.48;107579;1251;114548;-64
2024/02/09 12:15:34;;;;;;;;;;;;;;;18.27;36.18;99758.67;107643;1254;107695;-64
2024/02/09 12:18:02;;;;;;;;;;;;;;;18.24;36.18;99758.89;107509;1251;109210;-64
2024/02/09 12:20:32;;;;;;;;;;;;;;;18.22;36.61;99758.09;107546;1251;99205;-64
2024/02/09 12:23:03;;;;;;;;;;;;;;;18.17;36.31;99756.45;107574;1253;99124;-64
2024/02/09 12:25:37;;;;;;;;;;;;;;;18.18;36.87;99755.79;107611;1251;113351;-64
2024/02/09 12:28:09;;;;;;;;;;;;;;;18.13;36.96;99752.81;107619;1251;108479;-64
2024/02/09 12:30:39;;;;;;;;;;;;;;;18.14;36.75;99762.38;107581;1251;108387;-65
2024/02/09 12:33:08;;;;;;;;;;;;;;;18.07;36.78;99757.39;107415;1256;99198;-65
2024/02/09 12:35:36;;;;;;;;;;;;;;;18.07;36.78;99759.73;107451;1251;99029;-65
2024/02/09 12:38:07;;;;;;;;;;;;;;;18.11;37.24;99757.96;107421;1254;113936;-65
2024/02/09 12:40:35;;;;;;;;;;;;;;;18.16;37.20;99751.52;107371;1251;108301;-65
2024/02/09 12:43:09;;;;;;;;;;;;;;;18.27;37.82;99757.23;107471;1251;108603;-64
2024/02/09 12:45:38;;;;;;;;;;;;;;;18.39;37.09;99758.60;107387;1251;99172;-65
2024/02/09 12:48:06;;;;;;;;;;;;;;;18.49;36.33;99764.52;107417;1252;99187;-64
2024/02/09 12:50:35;;;;;;;;;;;;;;;18.62;36.01;99761.14;107566;1255;113526;-64
2024/02/09 12:53:04;;;;;;;;;;;;;;;18.78;35.37;99773.58;107408;1250;108727;-65
2024/02/09 12:55:33;;;;;;;;;;;;;;;18.94;34.59;99759.29;107403;1251;107865;-65
2024/02/09 12:58:01;;;;;;;;;;;;;;;19.10;34.39;99760.33;107395;1251;99173;-64
2024/02/09 13:00:30;;;;;;;;;;;;;;;19.20;34.61;99756.58;107395;1251;99099;-64
2024/02/09 13:02:58;;;;;;;;;;;;;;;19.32;34.45;99765.73;107442;1251;114320;-64
2024/02/09 13:05:30;;;;;;;;;;;;;;;19.48;33.83;99771.89;107401;1251;107789;-63
2024/02/09 13:08:00;;;;;;;;;;;;;;;19.56;33.57;99775.32;107465;1251;107202;-64
2024/02/09 13:10:28;;;;;;;;;;;;;;;19.65;33.30;99768.12;107517;1251;99831;-63
2024/02/09 13:13:00;;;;;;;;;;;;;;;19.58;33.52;99769.52;107592;1251;99186;-65
2024/02/09 13:15:28;;;;;;;;;;;;;;;19.35;33.69;99768.06;107646;1250;112180;-64
2024/02/09 13:17:57;;;;;;;;;;;;;;;19.20;34.28;99768.45;107702;1255;107363;-64
2024/02/09 13:20:26;;;;;;;;;;;;;;;18.98;34.37;99767.58;107611;1251;109636;-65
2024/02/09 13:22:59;;;;;;;;;;;;;;;18.77;34.60;99773.29;107580;1251;99198;-65
2024/02/09 13:25:33;;;;;;;;;;;;;;;18.57;34.98;99777.24;107576;1251;99330;-65
2024/02/09 13:28:04;;;;;;;;;;;;;;;18.38;35.27;99773.14;107470;1251;112656;-65
2024/02/09 13:30:33;;;;;;;;;;;;;;;18.29;35.49;99774.16;107518;1251;108143;-65
2024/02/09 13:33:01;;;;;;;;;;;;;;;18.32;35.37;99765.19;107537;1251;108656;-63
2024/02/09 13:35:30;;;;;;;;;;;;;;;18.29;35.69;99762.26;107466;1251;99845;-64
2024/02/09 13:37:58;;;;;;;;;;;;;;;18.20;35.95;99772.11;107554;1252;99170;-63
2024/02/09 13:40:26;;;;;;;;;;;;;;;18.19;35.72;99772.00;107500;1251;112837;-63
2024/02/09 13:42:55;;;;;;;;;;;;;;;18.02;35.83;99780.20;107532;1254;107867;-64
2024/02/09 13:45:25;;;;;;;;;;;;;;;17.84;36.25;99778.79;107565;1251;108241;-63
2024/02/09 13:47:55;;;;;;;;;;;;;;;17.69;36.47;99780.08;107550;1254;99168;-64
2024/02/09 13:50:25;;;;;;;;;;;;;;;17.57;36.64;99776.13;107624;1251;99179;-64
2024/02/09 13:52:54;;;;;;;;;;;;;;;17.56;37.09;99775.38;107651;1251;113195;-64
2024/02/09 13:55:25;;;;;;;;;;;;;;;17.50;36.97;99781.00;107588;1251;108773;-63
2024/02/09 13:57:56;;;;;;;;;;;;;;;17.44;37.06;99784.96;107595;1251;107146;-63
2024/02/09 14:00:25;;;;;;;;;;;;;;;17.31;37.08;99788.27;107563;1251;99175;-63
2024/02/09 14:02:53;;;;;;;;;;;;;;;17.24;37.11;99787.22;107549;1250;99035;-63
2024/02/09 14:05:22;;;;;;;;;;;;;;;17.18;37.53;99779.93;107571;1255;113162;-63
2024/02/09 14:07:51;;;;;;;;;;;;;;;17.07;37.66;99775.45;107551;1253;107886;-63
2024/02/09 14:10:20;;;;;;;;;;;;;;;16.96;37.94;99773.83;107617;1251;107756;-63
2024/02/09 14:12:48;;;;;;;;;;;;;;;16.90;37.87;99773.23;107541;1254;99265;-63
2024/02/09 14:15:16;;;;;;;;;;;;;;;16.85;37.84;99768.14;107626;1251;99160;-64
2024/02/09 14:17:45;;;;;;;;;;;;;;;16.80;38.28;99766.13;107519;1251;112507;-64
2024/02/09 14:20:20;;;;;;;;;;;;;;;16.76;38.54;99765.39;107550;1250;108631;-64
2024/02/09 14:22:48;;;;;;;;;;;;;;;16.72;38.65;99766.04;107565;1251;107248;-64
2024/02/09 14:25:18;;;;;;;;;;;;;;;16.64;38.75;99769.63;107352;1251;99824;-63
2024/02/09 14:27:49;;;;;;;;;;;;;;;16.51;38.91;99770.55;107542;1251;99164;-64
2024/02/09 14:30:18;;;;;;;;;;;;;;;16.45;38.99;99774.66;107378;1254;113483;-65
2024/02/09 14:32:46;;;;;;;;;;;;;;;16.37;39.53;99771.30;107485;1252;107767;-63
2024/02/09 14:35:15;;;;;;;;;;;;;;;16.30;39.80;99770.97;107585;1256;107077;-64